Time;durP1;ratioP1;P1;durP2;ratioP2;P2;SDS_P1;SDS_P2;PMS_P1;PMS_P2;Temp;Humidity;BMP_temperature;BMP_pressure;BME280_temperature;BME280_humidity;BME280_pressure;Samples;Min_cycle;Max_cycle;Signal;HPM_P1;HPM_P2
2023/08/22 00:01:58;;;;;;;17.00;13.93;;;;;;;;;;5054614;28;20045;-76
2023/08/22 00:04:44;;;;;;;19.20;14.55;;;;;;;;;;5055294;28;20041;-76
2023/08/22 00:07:29;;;;;;;16.60;13.68;;;;;;;;;;5054979;28;20036;-76
2023/08/22 00:10:15;;;;;;;17.33;13.98;;;;;;;;;;5054732;28;20041;-78
2023/08/22 00:13:02;;;;;;;16.15;14.45;;;;;;;;;;5054853;28;20394;-78
2023/08/22 00:15:48;;;;;;;15.23;13.68;;;;;;;;;;5060781;28;20044;-76
2023/08/22 00:18:34;;;;;;;15.10;13.50;;;;;;;;;;5054457;28;20045;-76
2023/08/22 00:21:42;;;;;;;17.98;14.45;;;;;;;;;;5054654;28;20049;-76
2023/08/22 00:24:28;;;;;;;18.70;14.68;;;;;;;;;;5054400;28;20049;-76
2023/08/22 00:27:13;;;;;;;15.90;14.15;;;;;;;;;;5053581;28;20041;-76
2023/08/22 00:29:59;;;;;;;15.80;13.50;;;;;;;;;;5054216;28;20049;-77
2023/08/22 00:32:44;;;;;;;20.73;13.73;;;;;;;;;;5054164;28;20394;-76
2023/08/22 00:35:31;;;;;;;14.65;13.15;;;;;;;;;;5059648;28;20045;-75
2023/08/22 00:38:16;;;;;;;17.52;14.00;;;;;;;;;;5054072;28;20040;-75
2023/08/22 00:41:01;;;;;;;17.58;14.20;;;;;;;;;;5059829;28;20409;-75
2023/08/22 00:43:47;;;;;;;16.70;13.43;;;;;;;;;;5053704;28;20474;-76
2023/08/22 00:46:32;;;;;;;17.02;13.82;;;;;;;;;;5059662;28;20045;-76
2023/08/22 00:49:17;;;;;;;18.65;13.57;;;;;;;;;;5059866;28;20053;-76
2023/08/22 00:52:04;;;;;;;19.95;13.82;;;;;;;;;;5053614;28;20041;-75
2023/08/22 00:54:50;;;;;;;17.92;13.38;;;;;;;;;;5053829;28;20041;-76
2023/08/22 00:57:36;;;;;;;17.00;12.90;;;;;;;;;;5059306;28;20410;-76
2023/08/22 01:00:21;;;;;;;15.77;13.13;;;;;;;;;;5053997;28;20040;-75
2023/08/22 01:03:07;;;;;;;15.73;12.68;;;;;;;;;;5060529;28;20388;-76
2023/08/22 01:05:58;;;;;;;14.48;12.98;;;;;;;;;;5059349;28;20044;-76
2023/08/22 01:08:48;;;;;;;15.82;13.52;;;;;;;;;;5053628;28;20049;-76
2023/08/22 01:11:41;;;;;;;16.58;13.02;;;;;;;;;;5045165;28;20378;-76
2023/08/22 01:14:29;;;;;;;15.85;14.25;;;;;;;;;;5053858;28;20049;-76
2023/08/22 01:17:14;;;;;;;14.85;13.35;;;;;;;;;;5059569;28;20044;-76
2023/08/22 01:20:00;;;;;;;15.20;13.60;;;;;;;;;;5053439;28;20037;-76
2023/08/22 01:22:45;;;;;;;16.58;13.60;;;;;;;;;;5053512;28;20041;-76
2023/08/22 01:25:31;;;;;;;19.95;14.15;;;;;;;;;;5053869;28;20053;-76
2023/08/22 01:28:23;;;;;;;18.77;14.82;;;;;;;;;;5052737;28;20417;-77
2023/08/22 01:31:29;;;;;;;18.17;14.23;;;;;;;;;;5053395;28;20049;-76
2023/08/22 01:34:22;;;;;;;18.17;14.70;;;;;;;;;;5053491;28;20037;-76
2023/08/22 01:37:09;;;;;;;17.80;14.75;;;;;;;;;;5053543;28;20053;-76
2023/08/22 01:39:56;;;;;;;26.10;13.63;;;;;;;;;;5053596;28;20048;-76
2023/08/22 01:42:42;;;;;;;21.30;14.30;;;;;;;;;;5053251;28;20041;-76
2023/08/22 01:45:27;;;;;;;22.33;15.68;;;;;;;;;;5058824;28;20490;-77
2023/08/22 01:48:13;;;;;;;17.38;14.85;;;;;;;;;;5052876;28;20048;-76
2023/08/22 01:50:58;;;;;;;16.17;14.48;;;;;;;;;;5087390;28;20481;-76
2023/08/22 01:53:43;;;;;;;16.60;14.88;;;;;;;;;;5059311;28;20045;-76
2023/08/22 01:56:29;;;;;;;16.40;13.65;;;;;;;;;;5059170;28;20037;-76
2023/08/22 01:59:15;;;;;;;20.85;14.70;;;;;;;;;;5058778;28;20045;-76
2023/08/22 02:02:01;;;;;;;16.70;14.80;;;;;;;;;;5053149;28;20045;-76
2023/08/22 02:04:47;;;;;;;16.95;13.85;;;;;;;;;;5053048;28;20052;-76
2023/08/22 02:07:34;;;;;;;15.70;13.75;;;;;;;;;;5059005;28;20481;-77
2023/08/22 02:10:20;;;;;;;15.75;13.32;;;;;;;;;;5056576;28;20041;-76
2023/08/22 02:13:05;;;;;;;16.65;14.70;;;;;;;;;;5057047;28;20049;-76
2023/08/22 02:15:51;;;;;;;16.13;14.43;;;;;;;;;;5062445;28;20417;-76
2023/08/22 02:18:37;;;;;;;16.10;14.40;;;;;;;;;;5054784;28;20041;-76
2023/08/22 02:21:22;;;;;;;15.82;14.18;;;;;;;;;;5056542;28;20055;-76
2023/08/22 02:24:08;;;;;;;15.75;14.07;;;;;;;;;;5056147;28;20049;-76
2023/08/22 02:26:53;;;;;;;19.55;14.77;;;;;;;;;;5062218;28;20041;-76
2023/08/22 02:29:58;;;;;;;19.00;14.82;;;;;;;;;;5056372;28;20041;-76
2023/08/22 02:32:43;;;;;;;15.90;14.23;;;;;;;;;;5062224;28;20044;-76
2023/08/22 02:35:29;;;;;;;16.55;14.80;;;;;;;;;;5062127;28;20041;-76
2023/08/22 02:38:16;;;;;;;15.60;13.98;;;;;;;;;;5056323;28;20045;-76
2023/08/22 02:41:01;;;;;;;16.13;13.75;;;;;;;;;;5055519;28;20041;-76
2023/08/22 02:43:46;;;;;;;16.35;14.43;;;;;;;;;;5061442;28;20045;-76
2023/08/22 02:46:31;;;;;;;18.17;14.43;;;;;;;;;;5061926;28;20037;-76
2023/08/22 02:49:17;;;;;;;19.90;15.00;;;;;;;;;;5090331;28;20045;-76
2023/08/22 02:52:03;;;;;;;20.38;14.77;;;;;;;;;;5055985;28;20053;-77
2023/08/22 02:54:48;;;;;;;18.52;14.15;;;;;;;;;;5056320;28;20391;-77
2023/08/22 02:57:34;;;;;;;17.60;14.73;;;;;;;;;;5055128;28;20048;-77
2023/08/22 03:00:19;;;;;;;16.38;13.77;;;;;;;;;;5060843;28;20061;-77
2023/08/22 03:03:05;;;;;;;17.15;14.05;;;;;;;;;;5062854;28;20037;-77
2023/08/22 03:05:52;;;;;;;18.73;14.95;;;;;;;;;;5061674;28;20045;-77
2023/08/22 03:08:37;;;;;;;20.63;15.57;;;;;;;;;;5061639;28;20049;-77
2023/08/22 03:11:23;;;;;;;22.73;16.30;;;;;;;;;;5061810;28;20048;-77
2023/08/22 03:14:08;;;;;;;22.27;17.92;;;;;;;;;;5061695;28;20041;-77
2023/08/22 03:16:54;;;;;;;24.50;18.08;;;;;;;;;;5055723;28;20052;-77
2023/08/22 03:19:40;;;;;;;27.02;18.33;;;;;;;;;;5055809;28;20045;-77
2023/08/22 03:22:25;;;;;;;27.17;18.27;;;;;;;;;;5059047;28;20405;-77
2023/08/22 03:25:11;;;;;;;21.75;17.98;;;;;;;;;;5055903;28;20037;-77
2023/08/22 03:27:58;;;;;;;22.10;18.45;;;;;;;;;;5061441;28;20059;-78
2023/08/22 03:30:44;;;;;;;22.13;18.45;;;;;;;;;;5061334;28;20037;-77
2023/08/22 03:33:30;;;;;;;21.65;17.35;;;;;;;;;;5055176;28;20052;-77
2023/08/22 03:36:16;;;;;;;22.00;17.35;;;;;;;;;;5061095;28;20045;-77
2023/08/22 03:39:01;;;;;;;25.92;17.20;;;;;;;;;;5061216;28;20040;-77
2023/08/22 03:41:47;;;;;;;21.17;16.38;;;;;;;;;;5061776;28;20045;-77
2023/08/22 03:44:33;;;;;;;23.10;16.42;;;;;;;;;;5060755;28;20045;-77
2023/08/22 03:47:19;;;;;;;19.08;17.02;;;;;;;;;;5060644;28;20049;-77
2023/08/22 03:50:06;;;;;;;17.85;15.68;;;;;;;;;;5060720;28;20037;-77
2023/08/22 03:52:51;;;;;;;19.02;16.60;;;;;;;;;;5054888;28;20041;-78
2023/08/22 03:55:38;;;;;;;17.85;15.95;;;;;;;;;;5060592;28;20048;-77
2023/08/22 03:58:24;;;;;;;20.90;16.20;;;;;;;;;;5060504;28;20393;-77
2023/08/22 04:01:10;;;;;;;18.77;15.75;;;;;;;;;;5055057;28;20478;-77
2023/08/22 04:03:56;;;;;;;21.08;16.17;;;;;;;;;;5060481;28;20412;-77
2023/08/22 04:06:41;;;;;;;18.63;15.77;;;;;;;;;;5060666;28;20041;-77
2023/08/22 04:09:27;;;;;;;18.05;15.57;;;;;;;;;;5054894;28;20045;-77
2023/08/22 04:12:12;;;;;;;21.55;16.38;;;;;;;;;;5054841;28;20398;-77
2023/08/22 04:14:58;;;;;;;20.45;15.70;;;;;;;;;;5061273;28;20033;-77
2023/08/22 04:17:44;;;;;;;17.95;15.88;;;;;;;;;;5060629;28;20048;-76
2023/08/22 04:20:29;;;;;;;21.65;14.80;;;;;;;;;;5060343;28;20041;-77
2023/08/22 04:23:14;;;;;;;28.10;15.85;;;;;;;;;;5054095;28;20041;-77
2023/08/22 04:25:59;;;;;;;27.15;15.68;;;;;;;;;;5054343;28;20041;-77
2023/08/22 04:28:45;;;;;;;19.50;16.20;;;;;;;;;;5054568;28;20044;-76
2023/08/22 04:31:30;;;;;;;20.98;15.73;;;;;;;;;;5059858;28;20053;-77
2023/08/22 04:34:16;;;;;;;18.35;16.38;;;;;;;;;;5060211;28;20506;-76
2023/08/22 04:37:10;;;;;;;21.80;16.55;;;;;;;;;;5060262;28;20040;-77
2023/08/22 04:39:56;;;;;;;21.35;15.65;;;;;;;;;;5060181;28;20045;-76
2023/08/22 04:43:00;;;;;;;18.73;15.50;;;;;;;;;;5054344;28;20041;-77
2023/08/22 04:45:46;;;;;;;18.73;15.50;;;;;;;;;;5059934;28;20041;-77
2023/08/22 04:48:32;;;;;;;18.77;15.35;;;;;;;;;;5058848;28;20045;-76
2023/08/22 04:51:17;;;;;;;21.15;15.10;;;;;;;;;;5059762;28;20501;-77
2023/08/22 04:54:02;;;;;;;18.58;14.88;;;;;;;;;;5059747;28;20041;-76
2023/08/22 04:56:48;;;;;;;22.33;14.32;;;;;;;;;;5059514;28;20045;-76
2023/08/22 04:59:34;;;;;;;18.83;15.35;;;;;;;;;;5058794;28;20049;-76
2023/08/22 05:02:24;;;;;;;21.83;13.75;;;;;;;;;;5059395;28;20045;-76
2023/08/22 05:05:11;;;;;;;20.20;14.18;;;;;;;;;;5059194;28;20041;-76
2023/08/22 05:07:56;;;;;;;18.95;13.50;;;;;;;;;;5059260;28;20036;-76
2023/08/22 05:10:43;;;;;;;18.80;12.90;;;;;;;;;;5053573;28;20041;-76
2023/08/22 05:13:28;;;;;;;16.63;12.20;;;;;;;;;;5053363;28;20494;-76
2023/08/22 05:16:14;;;;;;;14.25;12.60;;;;;;;;;;5087404;28;20368;-76
2023/08/22 05:19:00;;;;;;;18.25;11.93;;;;;;;;;;5059069;28;20040;-76
2023/08/22 05:21:45;;;;;;;17.95;11.90;;;;;;;;;;5058592;28;20045;-77
2023/08/22 05:24:30;;;;;;;12.52;11.15;;;;;;;;;;5058391;28;20065;-76
2023/08/22 05:27:17;;;;;;;17.52;12.40;;;;;;;;;;5059257;28;20045;-76
2023/08/22 05:30:02;;;;;;;12.60;10.80;;;;;;;;;;5052258;28;20041;-76
2023/08/22 05:32:49;;;;;;;15.63;11.48;;;;;;;;;;5059780;28;20041;-76
2023/08/22 05:35:36;;;;;;;17.67;11.45;;;;;;;;;;5057922;28;20053;-77
2023/08/22 05:38:26;;;;;;;13.07;10.30;;;;;;;;;;5058618;28;20045;-77
2023/08/22 05:41:11;;;;;;;13.70;11.27;;;;;;;;;;5052490;28;20049;-76
2023/08/22 05:43:57;;;;;;;17.05;11.57;;;;;;;;;;5059975;28;20049;-76
2023/08/22 05:46:42;;;;;;;13.35;10.00;;;;;;;;;;5062773;28;20045;-76
2023/08/22 05:49:29;;;;;;;15.65;9.98;;;;;;;;;;5088378;22;20057;-79
2023/08/22 05:52:15;;;;;;;14.43;10.82;;;;;;;;;;5031151;28;20041;-79
2023/08/22 05:55:02;;;;;;;14.50;11.15;;;;;;;;;;5033773;28;20045;-78
2023/08/22 05:57:47;;;;;;;15.90;11.02;;;;;;;;;;5032010;28;20049;-77
2023/08/22 06:00:32;;;;;;;13.15;10.55;;;;;;;;;;5030224;28;20045;-79
2023/08/22 06:03:18;;;;;;;12.45;9.60;;;;;;;;;;5037416;28;20037;-79
2023/08/22 06:06:04;;;;;;;12.77;9.85;;;;;;;;;;5031638;28;20484;-78
2023/08/22 06:08:49;;;;;;;14.32;9.88;;;;;;;;;;5036946;28;20046;-79
2023/08/22 06:11:34;;;;;;;14.65;10.65;;;;;;;;;;5037714;28;20049;-78
2023/08/22 06:14:19;;;;;;;12.80;9.68;;;;;;;;;;5032309;28;20053;-80
2023/08/22 06:17:05;;;;;;;10.88;9.73;;;;;;;;;;5035927;28;20045;-79
2023/08/22 06:19:51;;;;;;;12.50;9.68;;;;;;;;;;5032819;28;20042;-78
2023/08/22 06:22:36;;;;;;;16.70;9.55;;;;;;;;;;5031034;28;20045;-78
2023/08/22 06:25:22;;;;;;;11.27;10.05;;;;;;;;;;5023452;28;20061;-79
2023/08/22 06:28:07;;;;;;;16.20;9.98;;;;;;;;;;5037534;28;20045;-79
2023/08/22 06:30:53;;;;;;;13.52;9.70;;;;;;;;;;5033130;28;20045;-80
2023/08/22 06:33:39;;;;;;;14.63;10.57;;;;;;;;;;5038505;28;20045;-79
2023/08/22 06:36:25;;;;;;;12.07;10.07;;;;;;;;;;5033111;28;20468;-78
2023/08/22 06:39:10;;;;;;;14.55;10.70;;;;;;;;;;5037895;28;20049;-79
2023/08/22 06:41:55;;;;;;;16.42;11.98;;;;;;;;;;5032004;28;20029;-78
2023/08/22 06:44:42;;;;;;;15.65;12.38;;;;;;;;;;5038140;28;20052;-78
2023/08/22 06:47:28;;;;;;;16.48;11.85;;;;;;;;;;5037090;28;20041;-79
2023/08/22 06:50:13;;;;;;;16.30;11.73;;;;;;;;;;5015359;28;20041;-80
2023/08/22 06:52:59;;;;;;;17.63;11.50;;;;;;;;;;5031027;28;20558;-79
2023/08/22 06:55:47;;;;;;;20.38;12.65;;;;;;;;;;5030135;28;20045;-79
2023/08/22 06:58:33;;;;;;;14.77;11.80;;;;;;;;;;5031314;28;20037;-79
2023/08/22 07:01:19;;;;;;;14.02;11.80;;;;;;;;;;5030660;28;20053;-78
2023/08/22 07:04:04;;;;;;;16.88;12.45;;;;;;;;;;5028940;28;20041;-78
2023/08/22 07:06:49;;;;;;;17.75;12.18;;;;;;;;;;5030198;28;20033;-79
2023/08/22 07:09:35;;;;;;;15.40;12.75;;;;;;;;;;5029901;28;20038;-78
2023/08/22 07:12:21;;;;;;;16.55;12.82;;;;;;;;;;5027796;28;20045;-78
2023/08/22 07:15:07;;;;;;;17.45;13.65;;;;;;;;;;5037759;28;20045;-81
2023/08/22 07:17:52;;;;;;;24.58;12.85;;;;;;;;;;5030008;28;20041;-80
2023/08/22 07:20:37;;;;;;;19.08;13.45;;;;;;;;;;5030927;28;20396;-80
2023/08/22 07:23:23;;;;;;;17.73;13.25;;;;;;;;;;5031251;28;20041;-79
2023/08/22 07:26:08;;;;;;;18.10;13.52;;;;;;;;;;5032040;28;20053;-78
2023/08/22 07:28:54;;;;;;;21.00;15.75;;;;;;;;;;5030912;28;20037;-79
2023/08/22 07:31:39;;;;;;;18.08;14.02;;;;;;;;;;5037345;28;20499;-79
2023/08/22 07:34:24;;;;;;;49.65;39.85;;;;;;;;;;5031976;28;20053;-80
2023/08/22 07:37:10;;;;;;;19.70;14.48;;;;;;;;;;5031700;28;20049;-79
2023/08/22 07:39:56;;;;;;;18.52;14.07;;;;;;;;;;5031827;28;20045;-79
2023/08/22 07:42:41;;;;;;;26.83;22.05;;;;;;;;;;5032012;28;20049;-81
2023/08/22 07:45:27;;;;;;;33.97;28.00;;;;;;;;;;5030406;28;20038;-80
2023/08/22 07:48:13;;;;;;;18.85;15.88;;;;;;;;;;5030700;28;20034;-80
2023/08/22 07:50:59;;;;;;;19.45;13.70;;;;;;;;;;5031302;28;20045;-80
2023/08/22 07:53:44;;;;;;;14.50;12.70;;;;;;;;;;5031162;28;20049;-80
2023/08/22 07:56:30;;;;;;;18.02;13.13;;;;;;;;;;5051126;28;20484;-79
2023/08/22 07:59:15;;;;;;;16.52;12.02;;;;;;;;;;5028976;28;20388;-80
2023/08/22 08:02:01;;;;;;;15.38;12.85;;;;;;;;;;5030764;28;20041;-78
2023/08/22 08:04:47;;;;;;;17.58;11.98;;;;;;;;;;5030922;28;20049;-80
2023/08/22 08:07:33;;;;;;;15.43;11.93;;;;;;;;;;5030531;28;20046;-80
2023/08/22 08:10:18;;;;;;;18.02;11.77;;;;;;;;;;5036297;28;20042;-82
2023/08/22 08:13:03;;;;;;;14.73;11.23;;;;;;;;;;5030106;28;20045;-82
2023/08/22 08:15:49;;;;;;;15.77;11.40;;;;;;;;;;5030386;28;20380;-81
2023/08/22 08:18:35;;;;;;;18.55;11.85;;;;;;;;;;5028407;28;20046;-79
2023/08/22 08:21:21;;;;;;;15.73;11.35;;;;;;;;;;5036574;28;20057;-79
2023/08/22 08:24:06;;;;;;;17.30;11.57;;;;;;;;;;5030580;28;20041;-80
2023/08/22 08:26:51;;;;;;;16.33;12.02;;;;;;;;;;5030795;28;20045;-77
2023/08/22 08:29:37;;;;;;;12.77;10.75;;;;;;;;;;5030626;28;20484;-80
2023/08/22 08:32:24;;;;;;;16.95;10.65;;;;;;;;;;5030732;28;20049;-80
2023/08/22 08:35:09;;;;;;;13.70;10.23;;;;;;;;;;5035949;28;20041;-79
2023/08/22 08:37:57;;;;;;;10.95;9.85;;;;;;;;;;5030657;28;20041;-80
2023/08/22 08:40:43;;;;;;;14.88;9.75;;;;;;;;;;5030179;28;20400;-79
2023/08/22 08:43:29;;;;;;;16.58;10.07;;;;;;;;;;5021244;28;20480;-79
2023/08/22 08:46:15;;;;;;;13.07;9.65;;;;;;;;;;5029931;28;20045;-81
2023/08/22 08:49:00;;;;;;;14.50;9.82;;;;;;;;;;5030131;28;20041;-80
2023/08/22 08:51:47;;;;;;;16.38;9.57;;;;;;;;;;5029957;28;20037;-81
2023/08/22 08:54:33;;;;;;;11.18;9.00;;;;;;;;;;5029065;28;20496;-81
2023/08/22 08:57:18;;;;;;;13.00;10.07;;;;;;;;;;5036414;28;20045;-79
2023/08/22 09:00:04;;;;;;;16.25;9.57;;;;;;;;;;5030489;28;20045;-82
2023/08/22 09:02:50;;;;;;;13.88;8.68;;;;;;;;;;5028652;28;20507;-78
2023/08/22 09:05:37;;;;;;;16.30;9.73;;;;;;;;;;5029657;28;20045;-79
2023/08/22 09:08:23;;;;;;;13.40;9.35;;;;;;;;;;5030208;28;20045;-79
2023/08/22 09:11:07;;;;;;;15.43;9.05;;;;;;;;;;5030862;28;20041;-80
2023/08/22 09:13:53;;;;;;;10.32;8.98;;;;;;;;;;5030046;28;20480;-81
2023/08/22 09:16:38;;;;;;;12.73;8.90;;;;;;;;;;5030339;28;20045;-81
2023/08/22 09:19:23;;;;;;;12.93;8.73;;;;;;;;;;5035062;28;20053;-82
2023/08/22 09:22:12;;;;;;;14.82;8.90;;;;;;;;;;5028658;28;20034;-80
2023/08/22 09:24:57;;;;;;;10.70;9.60;;;;;;;;;;5029854;28;20496;-79
2023/08/22 09:27:50;;;;;;;11.90;8.15;;;;;;;;;;5030547;28;20046;-78
2023/08/22 09:30:35;;;;;;;11.27;8.13;;;;;;;;;;5028925;28;20041;-79
2023/08/22 09:33:20;;;;;;;9.85;8.05;;;;;;;;;;5027985;28;20061;-80
2023/08/22 09:36:06;;;;;;;9.05;7.55;;;;;;;;;;5029019;28;20492;-79
2023/08/22 09:38:55;;;;;;;10.18;7.43;;;;;;;;;;5030519;28;20033;-81
2023/08/22 09:41:40;;;;;;;12.10;8.25;;;;;;;;;;5029069;28;20042;-81
2023/08/22 09:44:26;;;;;;;8.82;7.38;;;;;;;;;;5029257;28;20053;-79
2023/08/22 09:47:11;;;;;;;15.48;7.93;;;;;;;;;;5030163;28;20054;-78
2023/08/22 09:50:04;;;;;;;11.82;8.18;;;;;;;;;;5029173;28;20053;-77
2023/08/22 09:52:50;;;;;;;12.35;8.60;;;;;;;;;;5027067;28;20041;-80
2023/08/22 09:55:37;;;;;;;9.10;8.13;;;;;;;;;;5029867;28;20041;-80
2023/08/22 09:58:28;;;;;;;14.32;8.25;;;;;;;;;;5029296;28;20049;-81
2023/08/22 10:01:16;;;;;;;15.23;8.27;;;;;;;;;;5030217;28;20404;-81
2023/08/22 10:04:04;;;;;;;13.73;7.80;;;;;;;;;;5029688;28;20076;-80
2023/08/22 10:06:51;;;;;;;12.73;8.25;;;;;;;;;;5035268;28;20488;-80
2023/08/22 10:09:38;;;;;;;10.27;8.27;;;;;;;;;;5029138;28;20049;-80
2023/08/22 10:12:25;;;;;;;17.35;8.23;;;;;;;;;;5028492;28;20049;-81
2023/08/22 10:15:14;;;;;;;13.00;8.25;;;;;;;;;;5028490;28;20041;-77
2023/08/22 10:18:01;;;;;;;14.10;8.05;;;;;;;;;;5029376;28;20041;-80
2023/08/22 10:20:49;;;;;;;11.75;7.82;;;;;;;;;;5029430;28;20384;-84
2023/08/22 10:23:44;;;;;;;12.15;7.72;;;;;;;;;;5034961;28;20042;-77
2023/08/22 10:26:50;;;;;;;15.80;7.97;;;;;;;;;;5029272;28;20491;-79
2023/08/22 10:29:38;;;;;;;10.52;8.50;;;;;;;;;;5029445;28;20045;-80
2023/08/22 10:32:24;;;;;;;10.43;7.72;;;;;;;;;;5033144;28;20041;-80
2023/08/22 10:35:15;;;;;;;10.23;7.95;;;;;;;;;;5033069;28;20053;-77
2023/08/22 10:38:02;;;;;;;14.15;7.78;;;;;;;;;;5032304;28;20049;-78
2023/08/22 10:40:54;;;;;;;10.52;7.88;;;;;;;;;;5031840;28;20037;-82
2023/08/22 10:43:40;;;;;;;11.77;8.15;;;;;;;;;;5032924;28;20033;-79
2023/08/22 10:47:10;;;;;;;10.35;8.15;;;;;;;;;;5030694;28;20045;-78
2023/08/22 10:50:00;;;;;;;13.93;8.52;;;;;;;;;;5021316;28;20053;-80
2023/08/22 10:52:46;;;;;;;9.40;7.85;;;;;;;;;;5032228;28;20046;-78
2023/08/22 10:55:31;;;;;;;10.13;7.45;;;;;;;;;;5032171;28;20046;-79
2023/08/22 10:58:38;;;;;;;11.95;8.30;;;;;;;;;;5033072;28;20049;-77
2023/08/22 11:01:24;;;;;;;12.18;7.88;;;;;;;;;;5032230;28;20049;-77
2023/08/22 11:04:13;;;;;;;11.73;7.97;;;;;;;;;;5031582;28;20042;-80
2023/08/22 11:06:58;;;;;;;12.55;8.40;;;;;;;;;;5037935;28;20080;-77
2023/08/22 11:09:47;;;;;;;9.13;8.18;;;;;;;;;;5032331;28;20484;-80
2023/08/22 11:12:32;;;;;;;12.52;8.00;;;;;;;;;;5031710;28;20054;-80
2023/08/22 11:15:18;;;;;;;10.48;8.00;;;;;;;;;;5037775;28;20045;-79
2023/08/22 11:18:05;;;;;;;9.20;8.18;;;;;;;;;;5030849;28;20412;-78
2023/08/22 11:20:57;;;;;;;11.65;8.50;;;;;;;;;;5031680;28;20042;-80
2023/08/22 11:23:42;;;;;;;12.38;7.45;;;;;;;;;;5032160;28;20419;-78
2023/08/22 11:26:27;;;;;;;12.25;7.72;;;;;;;;;;5031614;28;20424;-80
2023/08/22 11:29:13;;;;;;;14.20;8.23;;;;;;;;;;5031709;28;20041;-80
2023/08/22 11:32:00;;;;;;;14.90;8.65;;;;;;;;;;5037886;28;20042;-78
2023/08/22 11:34:46;;;;;;;11.13;8.32;;;;;;;;;;5031973;28;20053;-81
2023/08/22 11:37:37;;;;;;;10.57;7.72;;;;;;;;;;5032285;28;20046;-79
2023/08/22 11:40:25;;;;;;;12.27;7.82;;;;;;;;;;5031223;28;20042;-80
2023/08/22 11:43:13;;;;;;;13.00;8.60;;;;;;;;;;5031439;28;20408;-81
2023/08/22 11:45:59;;;;;;;10.32;7.70;;;;;;;;;;5031797;28;20033;-81
2023/08/22 11:48:45;;;;;;;11.48;8.25;;;;;;;;;;5031436;28;20045;-78
2023/08/22 11:51:30;;;;;;;11.40;8.18;;;;;;;;;;5031962;28;20046;-79
2023/08/22 11:54:26;;;;;;;9.77;7.90;;;;;;;;;;5031227;28;20033;-78
2023/08/22 11:57:12;;;;;;;14.82;8.75;;;;;;;;;;5030772;28;20372;-76
2023/08/22 12:00:12;;;;;;;10.02;8.10;;;;;;;;;;5031443;28;20046;-80
2023/08/22 12:03:01;;;;;;;11.48;8.73;;;;;;;;;;5028249;28;20428;-81
2023/08/22 12:05:48;;;;;;;9.93;7.80;;;;;;;;;;5030335;28;20612;-81
2023/08/22 12:08:34;;;;;;;13.43;8.02;;;;;;;;;;5030800;28;20042;-80
2023/08/22 12:11:25;;;;;;;9.90;7.82;;;;;;;;;;5037540;28;20041;-77
2023/08/22 12:14:30;;;;;;;12.82;8.00;;;;;;;;;;5031047;28;20403;-78
2023/08/22 12:17:16;;;;;;;11.05;7.32;;;;;;;;;;5029724;28;20041;-77
2023/08/22 12:20:01;;;;;;;11.00;6.85;;;;;;;;;;5030928;28;20050;-79
2023/08/22 12:22:47;;;;;;;10.10;7.47;;;;;;;;;;5031059;28;20041;-79
2023/08/22 12:25:34;;;;;;;11.13;7.13;;;;;;;;;;5030234;28;20041;-78
2023/08/22 12:28:19;;;;;;;9.88;7.32;;;;;;;;;;5030862;28;20041;-82
2023/08/22 12:31:05;;;;;;;11.68;7.00;;;;;;;;;;5030872;28;20049;-78
2023/08/22 12:33:50;;;;;;;10.13;7.07;;;;;;;;;;5036910;28;20038;-81
2023/08/22 12:36:36;;;;;;;8.63;6.47;;;;;;;;;;5030837;28;20041;-80
2023/08/22 12:39:22;;;;;;;10.05;6.82;;;;;;;;;;5030657;28;20045;-79
2023/08/22 12:42:07;;;;;;;10.57;7.00;;;;;;;;;;5037940;28;20400;-79
2023/08/22 12:44:52;;;;;;;9.38;7.10;;;;;;;;;;5036717;28;20041;-79
2023/08/22 12:47:39;;;;;;;13.38;7.28;;;;;;;;;;5034939;28;20042;-79
2023/08/22 12:50:25;;;;;;;10.50;7.43;;;;;;;;;;5035260;28;20041;-81
2023/08/22 12:53:10;;;;;;;10.93;6.93;;;;;;;;;;5035698;28;20053;-81
2023/08/22 12:55:56;;;;;;;7.93;6.47;;;;;;;;;;5042823;28;20037;-78
2023/08/22 12:58:41;;;;;;;11.63;7.43;;;;;;;;;;5036513;28;20037;-82
2023/08/22 13:01:27;;;;;;;11.75;7.63;;;;;;;;;;5035887;28;20160;-77
2023/08/22 13:04:13;;;;;;;11.07;7.05;;;;;;;;;;5033719;28;20037;-81
2023/08/22 13:06:58;;;;;;;9.30;6.60;;;;;;;;;;5028364;28;21582;-82
2023/08/22 13:09:44;;;;;;;7.80;7.00;;;;;;;;;;5028841;28;20042;-80
2023/08/22 13:12:29;;;;;;;7.70;6.63;;;;;;;;;;5014737;28;20496;-79
2023/08/22 13:15:15;;;;;;;7.65;6.60;;;;;;;;;;5028526;28;20053;-79
2023/08/22 13:18:00;;;;;;;9.85;7.18;;;;;;;;;;5035408;28;20041;-81
2023/08/22 13:20:45;;;;;;;9.88;6.75;;;;;;;;;;5028810;28;20037;-79
2023/08/22 13:23:31;;;;;;;10.85;6.90;;;;;;;;;;5035125;28;20037;-81
2023/08/22 13:26:16;;;;;;;9.70;7.43;;;;;;;;;;5029558;28;20484;-81
2023/08/22 13:29:02;;;;;;;8.93;6.93;;;;;;;;;;5028290;28;20041;-79
2023/08/22 13:31:48;;;;;;;7.20;6.50;;;;;;;;;;5029920;28;21897;-79
2023/08/22 13:34:33;;;;;;;8.00;6.50;;;;;;;;;;5035436;28;20488;-79
2023/08/22 13:37:19;;;;;;;11.00;6.25;;;;;;;;;;5029088;28;20045;-81
2023/08/22 13:40:05;;;;;;;8.35;6.35;;;;;;;;;;5030207;28;20057;-78
2023/08/22 13:42:50;;;;;;;11.10;6.88;;;;;;;;;;5029056;28;20037;-81
2023/08/22 13:45:35;;;;;;;12.27;6.90;;;;;;;;;;5029681;28;20030;-79
2023/08/22 13:48:23;;;;;;;7.35;6.38;;;;;;;;;;5028945;28;20045;-76
2023/08/22 13:51:08;;;;;;;10.35;7.75;;;;;;;;;;5027839;28;20046;-80
2023/08/22 13:53:53;;;;;;;13.65;7.55;;;;;;;;;;5029566;28;20049;-80
2023/08/22 13:56:39;;;;;;;11.73;7.97;;;;;;;;;;5028299;28;20050;-81
2023/08/22 13:59:24;;;;;;;10.90;7.40;;;;;;;;;;5029803;28;20049;-79
2023/08/22 14:02:10;;;;;;;12.40;7.53;;;;;;;;;;5027007;28;20041;-79
2023/08/22 14:04:59;;;;;;;15.05;7.57;;;;;;;;;;5028863;28;20431;-81
2023/08/22 14:07:44;;;;;;;8.48;7.07;;;;;;;;;;5031479;28;20403;-80
2023/08/22 14:10:30;;;;;;;9.15;7.60;;;;;;;;;;5033354;28;20049;-77
2023/08/22 14:13:15;;;;;;;12.10;8.25;;;;;;;;;;5032645;28;20033;-81
2023/08/22 14:16:01;;;;;;;10.57;7.47;;;;;;;;;;5031732;28;20697;-80
2023/08/22 14:18:47;;;;;;;9.20;7.47;;;;;;;;;;5032450;28;20049;-77
2023/08/22 14:21:32;;;;;;;10.88;7.78;;;;;;;;;;5032035;28;20049;-80
2023/08/22 14:24:17;;;;;;;15.73;8.50;;;;;;;;;;5033086;28;20045;-80
2023/08/22 14:27:02;;;;;;;8.75;7.85;;;;;;;;;;5038609;28;20042;-80
2023/08/22 14:29:48;;;;;;;8.77;7.25;;;;;;;;;;5032970;28;20484;-80
2023/08/22 14:32:33;;;;;;;9.48;7.65;;;;;;;;;;5031482;28;20045;-80
2023/08/22 14:35:19;;;;;;;12.35;7.90;;;;;;;;;;5033363;28;20053;-80
2023/08/22 14:38:04;;;;;;;15.30;8.57;;;;;;;;;;5032731;28;20057;-81
2023/08/22 14:40:57;;;;;;;10.13;8.35;;;;;;;;;;5033026;28;20392;-80
2023/08/22 14:43:43;;;;;;;14.60;8.63;;;;;;;;;;5038329;28;20067;-82
2023/08/22 14:46:29;;;;;;;11.23;8.75;;;;;;;;;;5032354;28;20503;-81
2023/08/22 14:49:14;;;;;;;13.23;9.10;;;;;;;;;;5032274;28;20042;-79
2023/08/22 14:51:59;;;;;;;10.20;8.30;;;;;;;;;;5032009;28;20042;-80
2023/08/22 14:54:45;;;;;;;11.90;8.77;;;;;;;;;;5032643;28;20041;-78
2023/08/22 14:57:31;;;;;;;15.63;8.73;;;;;;;;;;5031482;28;20053;-78
2023/08/22 15:00:16;;;;;;;14.15;8.80;;;;;;;;;;5032478;28;20045;-80
2023/08/22 15:03:02;;;;;;;11.02;8.73;;;;;;;;;;5032021;28;20412;-81
2023/08/22 15:05:50;;;;;;;12.80;9.27;;;;;;;;;;5031869;28;20045;-81
2023/08/22 15:08:35;;;;;;;13.25;9.02;;;;;;;;;;5032571;28;20049;-78
2023/08/22 15:11:20;;;;;;;14.85;8.93;;;;;;;;;;5032179;28;20041;-77
2023/08/22 15:14:06;;;;;;;13.10;9.10;;;;;;;;;;5032588;28;20049;-80
2023/08/22 15:16:52;;;;;;;10.90;8.60;;;;;;;;;;5031170;28;20057;-81
2023/08/22 15:19:37;;;;;;;9.73;8.77;;;;;;;;;;5031871;28;20045;-79
2023/08/22 15:22:24;;;;;;;10.88;8.18;;;;;;;;;;5032239;28;20492;-81
2023/08/22 15:25:09;;;;;;;8.80;7.95;;;;;;;;;;5037734;28;20041;-80
2023/08/22 15:27:58;;;;;;;9.82;8.73;;;;;;;;;;5037663;28;20049;-80
2023/08/22 15:30:44;;;;;;;12.20;8.57;;;;;;;;;;5031723;28;20045;-80
2023/08/22 15:33:29;;;;;;;10.15;8.55;;;;;;;;;;5031467;28;20404;-79
2023/08/22 15:36:15;;;;;;;16.60;8.60;;;;;;;;;;5031536;28;20045;-80
2023/08/22 15:39:00;;;;;;;12.70;8.25;;;;;;;;;;5031309;28;20384;-78
2023/08/22 15:41:46;;;;;;;11.65;8.23;;;;;;;;;;5030910;28;20041;-81
2023/08/22 15:44:32;;;;;;;9.82;7.80;;;;;;;;;;5029003;28;20038;-76
2023/08/22 15:47:17;;;;;;;10.20;8.52;;;;;;;;;;5029174;28;20072;-80
2023/08/22 15:50:02;;;;;;;10.85;8.25;;;;;;;;;;5029966;28;20053;-79
2023/08/22 15:52:48;;;;;;;17.73;10.80;;;;;;;;;;5031446;28;20042;-79
2023/08/22 15:55:33;;;;;;;11.30;8.48;;;;;;;;;;5031458;28;20045;-80
2023/08/22 15:58:19;;;;;;;10.57;7.85;;;;;;;;;;5030306;28;20503;-78
2023/08/22 16:01:04;;;;;;;10.52;8.23;;;;;;;;;;5029911;28;20038;-81
2023/08/22 16:03:49;;;;;;;15.13;8.48;;;;;;;;;;5031610;28;21269;-79
2023/08/22 16:06:35;;;;;;;9.27;8.27;;;;;;;;;;5036842;28;20776;-80
2023/08/22 16:09:21;;;;;;;10.32;8.05;;;;;;;;;;5030470;28;20045;-79
2023/08/22 16:12:06;;;;;;;12.80;8.10;;;;;;;;;;5030064;28;20054;-80
2023/08/22 16:14:52;;;;;;;10.85;8.00;;;;;;;;;;5030414;28;20045;-79
2023/08/22 16:17:37;;;;;;;12.18;7.60;;;;;;;;;;5031117;28;20400;-79